sensor_id;sensor_type;location;lat;lon;timestamp;P1;durP1;ratioP1;P2;durP2;ratioP2
65130;SDS011;51709;54.912;8.316;2023-04-03T00:05:03;2.00;;;0.88;;
65130;SDS011;51709;54.912;8.316;2023-04-03T00:10:25;1.92;;;0.90;;
65130;SDS011;51709;54.912;8.316;2023-04-03T00:15:46;0.60;;;0.60;;
65130;SDS011;51709;54.912;8.316;2023-04-03T00:21:07;1.05;;;1.00;;
65130;SDS011;51709;54.912;8.316;2023-04-03T00:26:30;0.90;;;0.90;;
65130;SDS011;51709;54.912;8.316;2023-04-03T00:31:52;1.52;;;0.73;;
65130;SDS011;51709;54.912;8.316;2023-04-03T00:37:12;11.77;;;1.55;;
65130;SDS011;51709;54.912;8.316;2023-04-03T00:42:34;1.02;;;0.90;;
65130;SDS011;51709;54.912;8.316;2023-04-03T00:47:54;4.10;;;1.00;;
65130;SDS011;51709;54.912;8.316;2023-04-03T00:53:18;2.40;;;0.95;;
65130;SDS011;51709;54.912;8.316;2023-04-03T00:58:59;3.42;;;0.85;;
65130;SDS011;51709;54.912;8.316;2023-04-03T01:04:35;1.33;;;0.98;;
65130;SDS011;51709;54.912;8.316;2023-04-03T01:10:01;1.35;;;1.10;;
65130;SDS011;51709;54.912;8.316;2023-04-03T01:15:28;2.03;;;1.00;;
65130;SDS011;51709;54.912;8.316;2023-04-03T01:26:16;2.60;;;1.08;;
65130;SDS011;51709;54.912;8.316;2023-04-03T01:37:06;2.05;;;1.00;;
65130;SDS011;51709;54.912;8.316;2023-04-03T01:42:27;4.07;;;1.00;;
65130;SDS011;51709;54.912;8.316;2023-04-03T01:47:48;4.38;;;1.05;;
65130;SDS011;51709;54.912;8.316;2023-04-03T01:53:09;4.75;;;1.33;;
65130;SDS011;51709;54.912;8.316;2023-04-03T01:58:30;3.38;;;1.13;;
65130;SDS011;51709;54.912;8.316;2023-04-03T02:03:51;2.67;;;1.30;;
65130;SDS011;51709;54.912;8.316;2023-04-03T02:09:12;1.90;;;0.93;;
65130;SDS011;51709;54.912;8.316;2023-04-03T02:14:33;1.90;;;0.95;;
65130;SDS011;51709;54.912;8.316;2023-04-03T02:19:53;3.47;;;1.10;;
65130;SDS011;51709;54.912;8.316;2023-04-03T02:25:15;0.77;;;0.77;;
65130;SDS011;51709;54.912;8.316;2023-04-03T02:30:35;1.85;;;1.60;;
65130;SDS011;51709;54.912;8.316;2023-04-03T02:35:58;2.35;;;1.02;;
65130;SDS011;51709;54.912;8.316;2023-04-03T02:41:18;3.25;;;1.45;;
65130;SDS011;51709;54.912;8.316;2023-04-03T02:46:42;1.17;;;1.03;;
65130;SDS011;51709;54.912;8.316;2023-04-03T02:52:03;2.22;;;1.17;;
65130;SDS011;51709;54.912;8.316;2023-04-03T02:57:24;5.07;;;1.55;;
65130;SDS011;51709;54.912;8.316;2023-04-03T03:02:45;2.13;;;1.45;;
65130;SDS011;51709;54.912;8.316;2023-04-03T03:08:06;1.95;;;1.20;;
65130;SDS011;51709;54.912;8.316;2023-04-03T03:13:27;5.90;;;1.10;;
65130;SDS011;51709;54.912;8.316;2023-04-03T03:18:48;1.85;;;0.85;;
65130;SDS011;51709;54.912;8.316;2023-04-03T03:24:08;3.70;;;1.67;;
65130;SDS011;51709;54.912;8.316;2023-04-03T03:29:29;1.40;;;1.30;;
65130;SDS011;51709;54.912;8.316;2023-04-03T03:34:51;12.15;;;2.28;;
65130;SDS011;51709;54.912;8.316;2023-04-03T03:40:12;3.15;;;1.42;;
65130;SDS011;51709;54.912;8.316;2023-04-03T03:45:33;2.67;;;1.00;;
65130;SDS011;51709;54.912;8.316;2023-04-03T03:50:54;3.75;;;1.27;;
65130;SDS011;51709;54.912;8.316;2023-04-03T03:56:19;3.45;;;1.45;;
65130;SDS011;51709;54.912;8.316;2023-04-03T04:01:40;7.90;;;2.08;;
65130;SDS011;51709;54.912;8.316;2023-04-03T04:07:02;3.40;;;2.00;;
65130;SDS011;51709;54.912;8.316;2023-04-03T04:12:25;4.03;;;1.55;;
65130;SDS011;51709;54.912;8.316;2023-04-03T04:17:46;5.82;;;1.38;;
65130;SDS011;51709;54.912;8.316;2023-04-03T04:23:08;5.15;;;1.45;;
65130;SDS011;51709;54.912;8.316;2023-04-03T04:28:30;5.53;;;1.20;;
65130;SDS011;51709;54.912;8.316;2023-04-03T04:33:52;1.85;;;1.20;;
65130;SDS011;51709;54.912;8.316;2023-04-03T04:39:13;5.07;;;2.58;;
65130;SDS011;51709;54.912;8.316;2023-04-03T04:44:34;2.25;;;2.05;;
65130;SDS011;51709;54.912;8.316;2023-04-03T04:49:55;5.38;;;2.30;;
65130;SDS011;51709;54.912;8.316;2023-04-03T04:55:17;9.43;;;3.25;;
65130;SDS011;51709;54.912;8.316;2023-04-03T05:00:38;5.03;;;2.85;;
65130;SDS011;51709;54.912;8.316;2023-04-03T05:05:59;5.35;;;2.38;;
65130;SDS011;51709;54.912;8.316;2023-04-03T05:11:23;7.50;;;3.15;;
65130;SDS011;51709;54.912;8.316;2023-04-03T05:16:45;6.90;;;2.47;;
65130;SDS011;51709;54.912;8.316;2023-04-03T05:22:06;3.15;;;2.13;;
65130;SDS011;51709;54.912;8.316;2023-04-03T05:27:28;2.95;;;1.88;;
65130;SDS011;51709;54.912;8.316;2023-04-03T05:32:50;3.88;;;1.65;;
65130;SDS011;51709;54.912;8.316;2023-04-03T05:38:18;2.72;;;1.60;;
65130;SDS011;51709;54.912;8.316;2023-04-03T05:43:39;3.35;;;2.08;;
65130;SDS011;51709;54.912;8.316;2023-04-03T05:49:02;3.75;;;1.73;;
65130;SDS011;51709;54.912;8.316;2023-04-03T05:54:27;9.03;;;2.03;;
65130;SDS011;51709;54.912;8.316;2023-04-03T06:00:08;6.72;;;2.30;;
65130;SDS011;51709;54.912;8.316;2023-04-03T06:05:40;3.87;;;2.57;;
65130;SDS011;51709;54.912;8.316;2023-04-03T06:11:03;5.18;;;1.88;;
65130;SDS011;51709;54.912;8.316;2023-04-03T06:16:24;9.80;;;2.00;;
65130;SDS011;51709;54.912;8.316;2023-04-03T06:21:45;3.22;;;1.95;;
65130;SDS011;51709;54.912;8.316;2023-04-03T06:27:07;3.30;;;2.17;;
65130;SDS011;51709;54.912;8.316;2023-04-03T06:32:29;5.57;;;2.30;;
65130;SDS011;51709;54.912;8.316;2023-04-03T06:37:50;3.13;;;1.65;;
65130;SDS011;51709;54.912;8.316;2023-04-03T06:43:11;3.03;;;1.48;;
65130;SDS011;51709;54.912;8.316;2023-04-03T06:48:31;56.63;;;4.88;;
65130;SDS011;51709;54.912;8.316;2023-04-03T06:53:53;7.20;;;1.85;;
65130;SDS011;51709;54.912;8.316;2023-04-03T06:59:15;5.13;;;1.90;;
65130;SDS011;51709;54.912;8.316;2023-04-03T07:04:35;2.60;;;1.63;;
65130;SDS011;51709;54.912;8.316;2023-04-03T07:09:56;8.25;;;1.98;;
65130;SDS011;51709;54.912;8.316;2023-04-03T07:15:16;4.53;;;2.08;;
65130;SDS011;51709;54.912;8.316;2023-04-03T07:20:38;6.45;;;2.28;;
65130;SDS011;51709;54.912;8.316;2023-04-03T07:25:59;5.63;;;1.90;;
65130;SDS011;51709;54.912;8.316;2023-04-03T07:31:21;4.20;;;1.55;;
65130;SDS011;51709;54.912;8.316;2023-04-03T07:36:43;2.15;;;1.48;;
65130;SDS011;51709;54.912;8.316;2023-04-03T07:42:03;2.10;;;1.40;;
65130;SDS011;51709;54.912;8.316;2023-04-03T07:47:24;1.77;;;1.30;;
65130;SDS011;51709;54.912;8.316;2023-04-03T07:52:46;1.08;;;0.80;;
65130;SDS011;51709;54.912;8.316;2023-04-03T07:58:06;1.35;;;1.25;;
65130;SDS011;51709;54.912;8.316;2023-04-03T08:03:28;3.47;;;1.30;;
65130;SDS011;51709;54.912;8.316;2023-04-03T08:08:49;1.75;;;1.15;;
65130;SDS011;51709;54.912;8.316;2023-04-03T08:14:10;2.30;;;1.00;;
65130;SDS011;51709;54.912;8.316;2023-04-03T08:19:44;3.22;;;1.55;;
65130;SDS011;51709;54.912;8.316;2023-04-03T08:25:05;2.33;;;1.48;;
65130;SDS011;51709;54.912;8.316;2023-04-03T08:30:26;7.45;;;1.35;;
65130;SDS011;51709;54.912;8.316;2023-04-03T08:35:47;3.90;;;1.63;;
65130;SDS011;51709;54.912;8.316;2023-04-03T08:41:13;7.20;;;1.50;;
65130;SDS011;51709;54.912;8.316;2023-04-03T08:46:40;5.00;;;1.27;;
65130;SDS011;51709;54.912;8.316;2023-04-03T08:52:11;3.13;;;1.63;;
65130;SDS011;51709;54.912;8.316;2023-04-03T08:57:36;5.90;;;1.85;;
65130;SDS011;51709;54.912;8.316;2023-04-03T09:03:00;4.85;;;1.50;;
65130;SDS011;51709;54.912;8.316;2023-04-03T09:08:27;3.33;;;1.30;;
65130;SDS011;51709;54.912;8.316;2023-04-03T09:24:56;2.47;;;1.58;;
65130;SDS011;51709;54.912;8.316;2023-04-03T09:30:22;2.60;;;1.48;;
65130;SDS011;51709;54.912;8.316;2023-04-03T09:35:44;3.25;;;1.48;;
65130;SDS011;51709;54.912;8.316;2023-04-03T09:41:21;1.30;;;1.23;;
65130;SDS011;51709;54.912;8.316;2023-04-03T09:46:44;17.27;;;3.45;;
65130;SDS011;51709;54.912;8.316;2023-04-03T09:52:17;11.43;;;4.35;;
65130;SDS011;51709;54.912;8.316;2023-04-03T09:57:40;2.47;;;1.50;;
65130;SDS011;51709;54.912;8.316;2023-04-03T10:03:01;3.65;;;1.92;;
65130;SDS011;51709;54.912;8.316;2023-04-03T10:13:56;11.57;;;2.00;;
65130;SDS011;51709;54.912;8.316;2023-04-03T10:30:47;2.30;;;1.73;;
65130;SDS011;51709;54.912;8.316;2023-04-03T10:58:54;6.03;;;2.20;;
65130;SDS011;51709;54.912;8.316;2023-04-03T11:04:19;2.08;;;1.95;;
65130;SDS011;51709;54.912;8.316;2023-04-03T11:10:05;2.92;;;2.72;;
65130;SDS011;51709;54.912;8.316;2023-04-03T11:15:34;4.20;;;4.00;;
65130;SDS011;51709;54.912;8.316;2023-04-03T11:20:58;7.00;;;5.32;;
65130;SDS011;51709;54.912;8.316;2023-04-03T11:26:26;8.10;;;7.80;;
65130;SDS011;51709;54.912;8.316;2023-04-03T11:37:38;17.65;;;16.58;;
65130;SDS011;51709;54.912;8.316;2023-04-03T11:43:18;22.95;;;21.80;;
65130;SDS011;51709;54.912;8.316;2023-04-03T11:48:43;26.75;;;25.70;;
65130;SDS011;51709;54.912;8.316;2023-04-03T12:00:45;32.53;;;31.23;;
65130;SDS011;51709;54.912;8.316;2023-04-03T12:11:30;53.97;;;51.67;;
65130;SDS011;51709;54.912;8.316;2023-04-03T12:16:52;68.53;;;64.80;;
65130;SDS011;51709;54.912;8.316;2023-04-03T12:22:18;97.05;;;92.95;;
65130;SDS011;51709;54.912;8.316;2023-04-03T12:27:41;131.10;;;125.63;;
65130;SDS011;51709;54.912;8.316;2023-04-03T12:44:21;128.95;;;123.95;;
65130;SDS011;51709;54.912;8.316;2023-04-03T12:49:44;127.38;;;122.47;;
65130;SDS011;51709;54.912;8.316;2023-04-03T12:55:15;146.18;;;140.60;;
65130;SDS011;51709;54.912;8.316;2023-04-03T13:00:39;183.48;;;176.65;;
65130;SDS011;51709;54.912;8.316;2023-04-03T13:06:00;164.27;;;157.88;;
65130;SDS011;51709;54.912;8.316;2023-04-03T13:11:24;153.63;;;147.73;;
65130;SDS011;51709;54.912;8.316;2023-04-03T13:16:57;164.43;;;157.93;;
65130;SDS011;51709;54.912;8.316;2023-04-03T13:22:33;209.35;;;201.52;;
65130;SDS011;51709;54.912;8.316;2023-04-03T13:33:33;221.18;;;213.02;;
65130;SDS011;51709;54.912;8.316;2023-04-03T13:39:02;170.95;;;164.43;;
65130;SDS011;51709;54.912;8.316;2023-04-03T13:44:27;124.40;;;119.50;;
65130;SDS011;51709;54.912;8.316;2023-04-03T13:50:48;98.45;;;94.30;;
65130;SDS011;51709;54.912;8.316;2023-04-03T13:55:59;49.55;;;47.55;;
65130;SDS011;51709;54.912;8.316;2023-04-03T14:01:24;38.88;;;37.17;;
65130;SDS011;51709;54.912;8.316;2023-04-03T14:06:46;42.17;;;40.28;;
65130;SDS011;51709;54.912;8.316;2023-04-03T14:12:08;50.55;;;48.35;;
65130;SDS011;51709;54.912;8.316;2023-04-03T14:17:50;51.63;;;49.30;;
65130;SDS011;51709;54.912;8.316;2023-04-03T14:23:15;56.65;;;54.35;;
65130;SDS011;51709;54.912;8.316;2023-04-03T14:28:36;60.13;;;57.63;;
65130;SDS011;51709;54.912;8.316;2023-04-03T14:33:57;64.43;;;61.90;;
65130;SDS011;51709;54.912;8.316;2023-04-03T14:39:18;61.13;;;58.70;;
65130;SDS011;51709;54.912;8.316;2023-04-03T14:44:38;47.80;;;45.60;;
65130;SDS011;51709;54.912;8.316;2023-04-03T14:50:00;41.17;;;39.28;;
65130;SDS011;51709;54.912;8.316;2023-04-03T14:55:22;37.38;;;35.88;;
65130;SDS011;51709;54.912;8.316;2023-04-03T15:00:44;39.05;;;37.30;;
65130;SDS011;51709;54.912;8.316;2023-04-03T15:06:05;39.70;;;37.83;;
65130;SDS011;51709;54.912;8.316;2023-04-03T15:11:26;39.33;;;37.53;;
65130;SDS011;51709;54.912;8.316;2023-04-03T15:16:48;35.33;;;33.70;;
65130;SDS011;51709;54.912;8.316;2023-04-03T15:22:15;25.02;;;23.83;;
65130;SDS011;51709;54.912;8.316;2023-04-03T15:27:38;15.13;;;14.40;;
65130;SDS011;51709;54.912;8.316;2023-04-03T15:33:00;8.30;;;7.80;;
65130;SDS011;51709;54.912;8.316;2023-04-03T15:38:21;6.00;;;5.45;;
65130;SDS011;51709;54.912;8.316;2023-04-03T15:43:42;6.68;;;4.55;;
65130;SDS011;51709;54.912;8.316;2023-04-03T15:49:02;4.05;;;3.67;;
65130;SDS011;51709;54.912;8.316;2023-04-03T15:54:23;4.05;;;2.42;;
65130;SDS011;51709;54.912;8.316;2023-04-03T15:59:45;2.22;;;2.03;;
65130;SDS011;51709;54.912;8.316;2023-04-03T16:05:05;5.53;;;2.30;;
65130;SDS011;51709;54.912;8.316;2023-04-03T16:10:27;2.17;;;1.73;;
65130;SDS011;51709;54.912;8.316;2023-04-03T16:15:48;1.75;;;1.50;;
65130;SDS011;51709;54.912;8.316;2023-04-03T16:21:09;2.20;;;1.73;;
65130;SDS011;51709;54.912;8.316;2023-04-03T16:26:30;4.15;;;2.10;;
65130;SDS011;51709;54.912;8.316;2023-04-03T16:31:51;2.50;;;1.35;;
65130;SDS011;51709;54.912;8.316;2023-04-03T16:37:12;1.83;;;1.58;;
65130;SDS011;51709;54.912;8.316;2023-04-03T16:42:33;2.20;;;1.50;;
65130;SDS011;51709;54.912;8.316;2023-04-03T16:47:57;2.70;;;1.88;;
65130;SDS011;51709;54.912;8.316;2023-04-03T16:53:17;7.70;;;1.80;;
65130;SDS011;51709;54.912;8.316;2023-04-03T16:58:38;3.03;;;1.42;;
65130;SDS011;51709;54.912;8.316;2023-04-03T17:03:58;1.98;;;1.30;;
65130;SDS011;51709;54.912;8.316;2023-04-03T17:09:18;7.28;;;1.73;;
65130;SDS011;51709;54.912;8.316;2023-04-03T17:14:41;3.20;;;1.75;;
65130;SDS011;51709;54.912;8.316;2023-04-03T17:20:02;3.42;;;1.60;;
65130;SDS011;51709;54.912;8.316;2023-04-03T17:25:23;4.63;;;1.70;;
65130;SDS011;51709;54.912;8.316;2023-04-03T17:30:44;2.80;;;1.20;;
65130;SDS011;51709;54.912;8.316;2023-04-03T17:36:04;6.53;;;1.80;;
65130;SDS011;51709;54.912;8.316;2023-04-03T17:41:25;2.55;;;1.40;;
65130;SDS011;51709;54.912;8.316;2023-04-03T17:46:46;5.80;;;2.38;;
65130;SDS011;51709;54.912;8.316;2023-04-03T17:52:07;3.28;;;1.42;;
65130;SDS011;51709;54.912;8.316;2023-04-03T17:57:28;5.00;;;2.17;;
65130;SDS011;51709;54.912;8.316;2023-04-03T18:02:51;3.28;;;1.15;;
65130;SDS011;51709;54.912;8.316;2023-04-03T18:08:13;3.58;;;1.08;;
65130;SDS011;51709;54.912;8.316;2023-04-03T18:13:34;2.90;;;1.35;;
65130;SDS011;51709;54.912;8.316;2023-04-03T18:18:57;4.97;;;1.67;;
65130;SDS011;51709;54.912;8.316;2023-04-03T18:24:37;1.27;;;1.17;;
65130;SDS011;51709;54.912;8.316;2023-04-03T18:29:59;1.67;;;1.20;;
65130;SDS011;51709;54.912;8.316;2023-04-03T18:35:23;3.22;;;1.25;;
65130;SDS011;51709;54.912;8.316;2023-04-03T18:40:43;1.42;;;0.90;;
65130;SDS011;51709;54.912;8.316;2023-04-03T18:46:06;1.90;;;1.25;;
65130;SDS011;51709;54.912;8.316;2023-04-03T18:51:26;4.72;;;1.45;;
65130;SDS011;51709;54.912;8.316;2023-04-03T18:56:47;2.15;;;1.10;;
65130;SDS011;51709;54.912;8.316;2023-04-03T19:02:07;1.95;;;1.42;;
65130;SDS011;51709;54.912;8.316;2023-04-03T19:07:29;4.03;;;0.85;;
65130;SDS011;51709;54.912;8.316;2023-04-03T19:12:50;1.45;;;0.98;;
65130;SDS011;51709;54.912;8.316;2023-04-03T19:18:10;2.88;;;0.98;;
65130;SDS011;51709;54.912;8.316;2023-04-03T19:23:31;2.65;;;0.82;;
65130;SDS011;51709;54.912;8.316;2023-04-03T19:28:52;5.47;;;1.20;;
65130;SDS011;51709;54.912;8.316;2023-04-03T19:34:12;1.02;;;0.80;;
65130;SDS011;51709;54.912;8.316;2023-04-03T19:39:35;1.63;;;0.80;;
65130;SDS011;51709;54.912;8.316;2023-04-03T19:44:56;1.10;;;1.00;;
65130;SDS011;51709;54.912;8.316;2023-04-03T19:50:17;1.17;;;0.90;;
65130;SDS011;51709;54.912;8.316;2023-04-03T19:55:38;6.18;;;1.90;;
65130;SDS011;51709;54.912;8.316;2023-04-03T20:00:59;2.15;;;1.10;;
65130;SDS011;51709;54.912;8.316;2023-04-03T20:06:20;4.38;;;1.60;;
65130;SDS011;51709;54.912;8.316;2023-04-03T20:11:40;4.20;;;1.35;;
65130;SDS011;51709;54.912;8.316;2023-04-03T20:17:02;4.88;;;1.40;;
65130;SDS011;51709;54.912;8.316;2023-04-03T20:22:23;2.03;;;0.80;;
65130;SDS011;51709;54.912;8.316;2023-04-03T20:27:44;5.43;;;1.55;;
65130;SDS011;51709;54.912;8.316;2023-04-03T20:33:05;4.00;;;1.40;;
65130;SDS011;51709;54.912;8.316;2023-04-03T20:38:26;1.20;;;0.85;;
65130;SDS011;51709;54.912;8.316;2023-04-03T20:43:46;4.05;;;1.40;;
65130;SDS011;51709;54.912;8.316;2023-04-03T20:49:07;1.63;;;1.23;;
65130;SDS011;51709;54.912;8.316;2023-04-03T20:54:28;10.30;;;3.15;;
65130;SDS011;51709;54.912;8.316;2023-04-03T20:59:50;4.35;;;1.92;;
65130;SDS011;51709;54.912;8.316;2023-04-03T21:05:12;8.07;;;3.08;;
65130;SDS011;51709;54.912;8.316;2023-04-03T21:21:53;6.68;;;1.80;;
65130;SDS011;51709;54.912;8.316;2023-04-03T21:27:14;4.72;;;3.00;;
65130;SDS011;51709;54.912;8.316;2023-04-03T21:32:35;1.38;;;1.05;;
65130;SDS011;51709;54.912;8.316;2023-04-03T21:37:55;1.73;;;1.40;;
65130;SDS011;51709;54.912;8.316;2023-04-03T21:43:16;4.25;;;1.30;;
65130;SDS011;51709;54.912;8.316;2023-04-03T21:48:37;1.23;;;0.93;;
65130;SDS011;51709;54.912;8.316;2023-04-03T21:53:58;2.15;;;1.50;;
65130;SDS011;51709;54.912;8.316;2023-04-03T21:59:19;3.95;;;1.50;;
65130;SDS011;51709;54.912;8.316;2023-04-03T22:04:40;0.82;;;0.82;;
65130;SDS011;51709;54.912;8.316;2023-04-03T22:10:00;3.78;;;1.10;;
65130;SDS011;51709;54.912;8.316;2023-04-03T22:15:21;1.55;;;0.90;;
65130;SDS011;51709;54.912;8.316;2023-04-03T22:20:42;3.22;;;1.05;;
65130;SDS011;51709;54.912;8.316;2023-04-03T22:26:07;1.13;;;1.00;;
65130;SDS011;51709;54.912;8.316;2023-04-03T22:31:29;3.63;;;1.20;;
65130;SDS011;51709;54.912;8.316;2023-04-03T22:36:50;1.83;;;1.10;;
65130;SDS011;51709;54.912;8.316;2023-04-03T22:42:12;2.10;;;1.30;;
65130;SDS011;51709;54.912;8.316;2023-04-03T22:47:33;1.55;;;1.13;;
65130;SDS011;51709;54.912;8.316;2023-04-03T22:52:54;1.10;;;1.00;;
65130;SDS011;51709;54.912;8.316;2023-04-03T22:58:14;2.10;;;0.93;;
65130;SDS011;51709;54.912;8.316;2023-04-03T23:03:35;2.95;;;1.08;;
65130;SDS011;51709;54.912;8.316;2023-04-03T23:08:57;1.45;;;1.23;;
65130;SDS011;51709;54.912;8.316;2023-04-03T23:14:17;1.52;;;0.95;;
65130;SDS011;51709;54.912;8.316;2023-04-03T23:19:38;1.05;;;0.95;;
65130;SDS011;51709;54.912;8.316;2023-04-03T23:24:58;1.90;;;1.00;;
65130;SDS011;51709;54.912;8.316;2023-04-03T23:30:19;2.22;;;1.05;;
65130;SDS011;51709;54.912;8.316;2023-04-03T23:35:43;3.28;;;0.95;;
65130;SDS011;51709;54.912;8.316;2023-04-03T23:41:05;1.25;;;1.00;;
65130;SDS011;51709;54.912;8.316;2023-04-03T23:46:26;128.82;;;46.53;;
65130;SDS011;51709;54.912;8.316;2023-04-03T23:51:46;10.18;;;4.03;;
65130;SDS011;51709;54.912;8.316;2023-04-03T23:57:08;10.93;;;2.55;;
